createdAt,value
2023-12-02T06:03:44.722Z,27.45
2023-12-02T06:04:47.073Z,26.38
2023-12-02T06:05:49.206Z,28.55
2023-12-02T06:06:51.376Z,22.52
2023-12-02T06:07:53.419Z,28.17
2023-12-02T06:08:55.852Z,26.75
2023-12-02T06:09:57.844Z,25.25
2023-12-02T06:11:02.443Z,23.10
2023-12-02T06:12:04.713Z,22.60
2023-12-02T06:13:06.967Z,27.80
2023-12-02T06:14:09.077Z,30.73
2023-12-02T06:15:13.045Z,25.13
2023-12-02T06:16:15.296Z,28.80
2023-12-02T06:17:17.446Z,28.02
2023-12-02T06:18:19.960Z,29.13
2023-12-02T06:19:22.375Z,28.60
2023-12-02T06:20:27.866Z,29.02
2023-12-02T06:21:30.060Z,19.10
2023-12-02T06:22:33.070Z,27.30
2023-12-02T06:23:35.331Z,26.83
2023-12-02T06:24:38.165Z,29.85
2023-12-02T06:25:40.412Z,24.27
2023-12-02T06:26:42.469Z,25.02
2023-12-02T06:27:44.675Z,27.63
2023-12-02T06:28:50.952Z,22.83
2023-12-02T06:29:53.132Z,29.40
2023-12-02T06:30:55.163Z,24.33
2023-12-02T06:31:57.356Z,32.13
2023-12-02T06:32:59.414Z,26.92
2023-12-02T06:34:01.541Z,28.00
2023-12-02T06:35:03.645Z,23.75
2023-12-02T06:36:07.057Z,17.80
2023-12-02T06:37:09.064Z,25.80
2023-12-02T06:38:12.240Z,24.60
2023-12-02T06:39:14.498Z,25.48
2023-12-02T06:40:16.861Z,27.83
2023-12-02T06:41:18.824Z,22.10
2023-12-02T06:42:21.655Z,23.77
2023-12-02T06:43:23.818Z,27.15
2023-12-02T06:44:27.370Z,22.90
2023-12-02T06:45:29.612Z,28.25
2023-12-02T06:46:32.003Z,20.52
2023-12-02T06:47:34.183Z,24.92
2023-12-02T06:48:36.615Z,26.27
2023-12-02T06:49:38.673Z,26.33
2023-12-02T06:50:40.820Z,22.25
2023-12-02T06:51:42.970Z,24.08
2023-12-02T06:52:45.327Z,23.80
2023-12-02T06:53:48.116Z,27.50
2023-12-02T06:55:55.159Z,27.00
2023-12-02T06:56:57.243Z,27.73
2023-12-02T06:58:00.577Z,24.65
2023-12-02T06:59:02.955Z,23.98
2023-12-02T07:00:07.424Z,25.15
2023-12-02T07:01:09.943Z,24.92
2023-12-02T07:02:12.661Z,26.15
2023-12-02T07:03:14.768Z,24.75
2023-12-02T07:04:16.965Z,27.38
2023-12-02T07:05:19.173Z,24.75
2023-12-02T07:06:22.342Z,28.88
2023-12-02T07:07:24.488Z,27.65
2023-12-02T07:08:26.901Z,25.70
2023-12-02T07:09:29.055Z,28.30
2023-12-02T07:10:31.283Z,139.13
2023-12-02T07:11:33.398Z,29.92
2023-12-02T07:12:35.607Z,23.88
2023-12-02T07:13:37.783Z,27.08
2023-12-02T07:14:39.836Z,24.92
2023-12-02T07:15:42.322Z,24.88
2023-12-02T07:16:44.451Z,26.95
2023-12-02T07:17:46.662Z,26.27
2023-12-02T07:18:48.833Z,27.90
2023-12-02T07:19:51.214Z,33.22
2023-12-02T07:20:53.256Z,29.30
2023-12-02T07:21:55.380Z,28.55
2023-12-02T07:22:57.652Z,27.45
2023-12-02T07:23:59.877Z,29.23
2023-12-02T07:25:01.913Z,26.02
2023-12-02T07:26:04.190Z,28.13
2023-12-02T07:27:06.463Z,27.35
2023-12-02T07:28:08.796Z,27.58
2023-12-02T07:29:11.097Z,30.35
2023-12-02T07:31:18.465Z,32.55
2023-12-02T07:32:20.797Z,33.60
2023-12-02T07:33:24.352Z,32.25
2023-12-02T07:34:26.686Z,30.70
2023-12-02T07:35:28.717Z,31.88
2023-12-02T07:36:30.792Z,36.13
2023-12-02T07:37:33.126Z,32.30
2023-12-02T07:38:35.267Z,31.23
2023-12-02T07:39:37.577Z,37.03
2023-12-02T07:40:40.050Z,37.75
2023-12-02T07:41:43.865Z,38.90
2023-12-02T07:42:46.239Z,35.33
2023-12-02T07:43:48.336Z,36.17
2023-12-02T07:44:50.688Z,36.35
2023-12-02T07:45:53.055Z,34.15
2023-12-02T07:46:55.121Z,39.60
2023-12-02T07:47:57.443Z,34.08
2023-12-02T07:48:59.646Z,38.03
2023-12-02T07:50:01.747Z,39.05
2023-12-02T07:51:07.642Z,37.40
2023-12-02T07:52:09.791Z,32.33
2023-12-02T07:53:12.021Z,35.83
2023-12-02T07:54:14.065Z,40.92
2023-12-02T07:55:16.581Z,33.92
2023-12-02T07:56:18.808Z,38.20
2023-12-02T07:57:20.918Z,36.90
2023-12-02T07:58:22.977Z,35.15
2023-12-02T07:59:25.068Z,34.08
2023-12-02T08:00:27.611Z,36.17
2023-12-02T08:01:29.736Z,35.10
2023-12-02T08:02:31.970Z,33.58
2023-12-02T08:03:34.704Z,30.05
2023-12-02T08:04:36.774Z,37.35
2023-12-02T08:06:43.746Z,29.40
2023-12-02T08:07:47.526Z,28.35
2023-12-02T08:08:50.349Z,29.50
2023-12-02T08:09:53.381Z,25.85
2023-12-02T08:10:56.950Z,32.15
2023-12-02T08:11:59.308Z,27.92
2023-12-02T08:13:01.287Z,27.52
2023-12-02T08:14:03.427Z,25.42
2023-12-02T08:15:07.219Z,25.42
2023-12-02T08:16:10.369Z,23.50
2023-12-02T08:17:12.484Z,25.13
2023-12-02T08:18:14.722Z,28.05
2023-12-02T08:19:18.023Z,23.80
2023-12-02T08:20:20.320Z,29.95
2023-12-02T08:21:22.455Z,22.15
2023-12-02T08:22:56.629Z,22.52
2023-12-02T08:24:07.449Z,23.50
2023-12-02T08:25:09.781Z,23.52
2023-12-02T08:28:59.344Z,21.92
2023-12-02T08:30:01.837Z,21.23
2023-12-02T08:31:29.305Z,21.98
2023-12-02T08:35:37.927Z,23.33
2023-12-02T08:41:13.612Z,22.20
2023-12-02T08:43:46.618Z,21.10
2023-12-02T08:45:05.879Z,19.85
2023-12-02T08:47:38.282Z,19.55
2023-12-02T08:48:40.591Z,25.98
2023-12-02T08:49:42.718Z,19.90
2023-12-02T08:52:09.838Z,16.10
2023-12-02T08:54:38.010Z,19.02
2023-12-02T08:55:40.278Z,17.85
2023-12-02T08:59:30.299Z,21.55
2023-12-02T09:00:33.165Z,23.13
2023-12-02T09:01:35.556Z,22.08
2023-12-02T09:02:37.857Z,21.13
2023-12-02T09:03:40.050Z,21.33
2023-12-02T09:04:42.263Z,21.38
2023-12-02T09:05:44.902Z,18.13
2023-12-02T09:06:47.175Z,21.33
2023-12-02T09:07:49.741Z,17.10
2023-12-02T09:08:55.106Z,20.45
2023-12-02T09:09:57.371Z,19.05
2023-12-02T09:10:59.747Z,22.17
2023-12-02T09:12:01.907Z,22.73
2023-12-02T09:13:25.436Z,19.73
2023-12-02T09:14:27.973Z,18.73
2023-12-02T09:15:41.290Z,21.17
2023-12-02T09:16:48.320Z,21.52
2023-12-02T09:18:11.626Z,19.52
2023-12-02T09:20:40.524Z,19.63
2023-12-02T09:21:46.106Z,23.95
2023-12-02T09:22:48.946Z,19.75
2023-12-02T09:23:52.393Z,20.80
2023-12-02T09:24:54.622Z,18.58
2023-12-02T09:26:23.052Z,21.98
2023-12-02T09:27:54.349Z,20.63
2023-12-02T09:28:57.147Z,22.85
2023-12-02T09:29:59.197Z,26.00
2023-12-02T09:31:10.824Z,31.63
2023-12-02T09:32:26.608Z,30.00
2023-12-02T09:33:29.638Z,22.23
2023-12-02T09:34:59.937Z,28.90
2023-12-02T09:36:03.861Z,24.23
2023-12-02T09:37:05.871Z,27.83
2023-12-02T09:38:08.218Z,28.77
2023-12-02T09:39:11.361Z,24.33
2023-12-02T09:40:22.639Z,27.10
2023-12-02T09:41:32.972Z,28.92
2023-12-02T09:42:36.016Z,26.67
2023-12-02T09:43:46.922Z,26.27
2023-12-02T09:45:00.385Z,23.60
2023-12-02T09:46:31.068Z,28.90
2023-12-02T09:47:41.661Z,23.35
2023-12-02T09:49:14.710Z,35.35
2023-12-02T09:50:24.463Z,27.98
2023-12-02T09:52:03.779Z,28.25
2023-12-02T09:53:22.905Z,27.67
2023-12-02T09:54:48.048Z,31.25
2023-12-02T09:55:55.419Z,29.50
2023-12-02T09:57:06.669Z,34.53
2023-12-02T09:58:25.808Z,26.08
2023-12-02T09:59:28.173Z,27.70
2023-12-02T10:00:58.138Z,27.13
2023-12-02T10:02:11.625Z,33.22
2023-12-02T10:04:06.136Z,23.52
2023-12-02T10:05:13.622Z,30.80
2023-12-02T10:06:34.030Z,29.45
2023-12-02T10:08:04.930Z,33.05
2023-12-02T10:09:31.557Z,32.30
2023-12-02T10:10:55.003Z,29.70
2023-12-02T10:12:31.917Z,27.15
2023-12-02T10:13:54.898Z,24.38
2023-12-02T10:15:02.926Z,23.38
2023-12-02T10:16:14.085Z,26.33
2023-12-02T10:17:18.166Z,30.70
2023-12-02T10:18:24.227Z,30.73
2023-12-02T10:19:52.220Z,26.23
2023-12-02T10:21:00.886Z,22.17
2023-12-02T10:22:05.159Z,21.90
2023-12-02T10:23:30.141Z,20.35
2023-12-02T10:24:53.957Z,22.00
2023-12-02T10:26:04.949Z,23.17
2023-12-02T10:27:13.125Z,21.65
2023-12-02T10:28:25.717Z,26.17
2023-12-02T10:29:38.039Z,28.23
2023-12-02T10:30:47.446Z,25.00
2023-12-02T10:32:20.858Z,23.38
2023-12-02T10:33:27.565Z,24.77
2023-12-02T10:34:43.772Z,21.48
2023-12-02T10:35:48.922Z,20.35
2023-12-02T10:36:55.104Z,23.15
2023-12-02T10:38:15.293Z,22.15
2023-12-02T10:39:30.369Z,22.02
2023-12-02T10:40:33.794Z,20.42
2023-12-02T10:41:42.312Z,21.02
2023-12-02T10:42:59.189Z,18.50
2023-12-02T10:44:05.602Z,20.27
2023-12-02T10:45:10.100Z,21.05
2023-12-02T10:46:13.080Z,20.33
2023-12-02T10:47:17.416Z,19.83
2023-12-02T10:48:23.335Z,21.30
2023-12-02T10:49:26.287Z,20.33
2023-12-02T10:50:29.779Z,19.20
2023-12-02T10:51:35.011Z,19.25
2023-12-02T10:52:40.832Z,19.35
2023-12-02T10:53:44.787Z,19.40
2023-12-02T10:54:50.990Z,16.45
2023-12-02T10:56:00.629Z,14.48
2023-12-02T10:57:08.176Z,18.95
2023-12-02T10:58:10.707Z,18.10
2023-12-02T10:59:13.696Z,18.58
2023-12-02T11:00:47.788Z,20.60
2023-12-02T11:02:02.091Z,16.52
2023-12-02T11:03:23.289Z,16.58
2023-12-02T11:06:09.748Z,16.38
2023-12-02T11:07:16.029Z,18.08
2023-12-02T11:08:29.877Z,18.73
2023-12-02T11:09:49.173Z,16.17
2023-12-02T11:11:00.064Z,19.08
2023-12-02T11:12:11.278Z,18.20
2023-12-02T11:13:16.682Z,16.25
2023-12-02T11:14:19.575Z,17.70
2023-12-02T11:15:25.641Z,19.05
2023-12-02T11:16:39.808Z,20.77
2023-12-02T11:18:04.576Z,19.80
2023-12-02T11:19:29.056Z,18.98
2023-12-02T11:21:02.882Z,23.63
2023-12-02T11:22:05.154Z,17.48
2023-12-02T11:23:31.309Z,20.05
2023-12-02T11:25:10.691Z,16.98
2023-12-02T11:26:21.586Z,18.27
2023-12-02T11:27:54.704Z,17.08
2023-12-02T11:29:18.321Z,23.65
2023-12-02T11:30:43.251Z,17.60
2023-12-02T11:32:04.281Z,16.67
2023-12-02T11:33:32.218Z,15.27
2023-12-02T11:35:01.473Z,17.27
2023-12-02T11:37:24.281Z,22.17
2023-12-02T11:38:32.306Z,17.65
2023-12-02T11:39:46.509Z,15.27
2023-12-02T11:41:06.680Z,19.58
2023-12-02T11:42:19.014Z,17.42
2023-12-02T11:43:27.603Z,20.67
2023-12-02T11:44:35.669Z,16.10
2023-12-02T11:45:44.510Z,17.83
2023-12-02T11:47:00.210Z,15.95
2023-12-02T11:48:14.586Z,16.10
2023-12-02T11:49:38.019Z,14.25
2023-12-02T11:50:52.250Z,19.08
2023-12-02T11:52:22.913Z,17.70
2023-12-02T11:54:11.024Z,18.88
2023-12-02T11:55:18.110Z,17.83
2023-12-02T11:56:25.258Z,19.25
2023-12-02T11:57:38.259Z,21.65
2023-12-02T11:59:15.987Z,15.85
2023-12-02T12:00:34.089Z,22.95
2023-12-02T12:02:01.052Z,21.90
2023-12-02T12:03:47.953Z,23.17
2023-12-02T12:05:01.903Z,19.75
2023-12-02T12:08:06.153Z,18.20
2023-12-02T12:11:55.646Z,17.40
2023-12-02T12:13:01.385Z,16.80
2023-12-02T12:15:34.633Z,14.73
2023-12-02T12:21:07.852Z,12.77
2023-12-02T12:24:57.532Z,13.82
2023-12-02T12:27:24.900Z,14.15
2023-12-02T12:30:12.212Z,16.58
2023-12-02T12:31:46.617Z,14.50
2023-12-02T12:36:22.992Z,13.45
2023-12-02T12:37:50.329Z,13.75
2023-12-02T12:41:49.292Z,13.95
2023-12-02T12:42:51.677Z,10.63
2023-12-02T12:48:36.427Z,13.63
2023-12-02T12:50:17.376Z,10.32
2023-12-02T12:51:45.253Z,13.15
2023-12-02T12:55:54.789Z,15.20
2023-12-02T13:02:42.932Z,15.77
2023-12-02T13:03:52.398Z,14.50
2023-12-02T13:05:22.969Z,15.40
2023-12-02T13:06:48.507Z,15.38
2023-12-02T13:08:09.705Z,16.23
2023-12-02T13:09:13.504Z,19.63
2023-12-02T13:10:16.627Z,14.98
2023-12-02T13:11:28.369Z,16.48
2023-12-02T13:12:35.721Z,16.92
2023-12-02T13:13:41.553Z,21.08
2023-12-02T13:14:49.481Z,17.45
2023-12-02T13:15:53.872Z,24.98
2023-12-02T13:16:57.217Z,16.50
2023-12-02T13:18:00.840Z,17.20
2023-12-02T13:19:03.664Z,23.48
2023-12-02T13:20:06.577Z,19.48
2023-12-02T13:21:09.248Z,19.42
2023-12-02T13:22:14.618Z,19.00
2023-12-02T13:23:22.114Z,22.17
2023-12-02T13:24:25.446Z,20.48
2023-12-02T13:25:30.859Z,22.10
2023-12-02T13:26:35.290Z,23.75
2023-12-02T13:27:40.776Z,18.67
2023-12-02T13:28:44.372Z,19.55
2023-12-02T13:29:50.834Z,18.00
2023-12-02T13:30:55.792Z,17.05
2023-12-02T13:31:58.434Z,16.50
2023-12-02T13:33:21.908Z,14.90
2023-12-02T13:34:37.122Z,14.77
2023-12-02T13:35:43.745Z,17.77
2023-12-02T13:36:51.515Z,17.80
2023-12-02T13:38:14.082Z,13.82
2023-12-02T13:39:19.407Z,19.15
2023-12-02T13:40:28.132Z,20.90
2023-12-02T13:41:47.731Z,18.25
2023-12-02T13:42:51.427Z,21.05
2023-12-02T13:43:54.773Z,18.48
2023-12-02T13:45:10.212Z,23.30
2023-12-02T13:46:16.748Z,25.40
2023-12-02T13:47:29.917Z,23.42
2023-12-02T13:49:09.195Z,22.92
2023-12-02T13:50:14.363Z,18.08
2023-12-02T13:51:29.547Z,17.75
2023-12-02T13:53:00.709Z,18.15
2023-12-02T13:54:08.959Z,9.98
2023-12-02T13:55:48.146Z,19.08
2023-12-02T13:56:59.298Z,13.52
2023-12-02T13:58:13.555Z,15.23
2023-12-02T13:59:28.838Z,14.10
2023-12-02T14:00:40.492Z,13.30
2023-12-02T14:02:06.045Z,13.35
2023-12-02T14:03:43.759Z,10.52
2023-12-02T14:05:07.769Z,10.90
2023-12-02T14:07:48.690Z,15.55
2023-12-02T14:10:07.473Z,10.60
2023-12-02T14:11:26.979Z,11.50
2023-12-02T14:29:21.947Z,11.80
2023-12-02T14:34:02.424Z,11.43
2023-12-02T14:35:17.081Z,11.63
2023-12-02T14:36:39.571Z,15.32
2023-12-02T14:38:13.926Z,10.82
2023-12-02T14:39:55.998Z,16.00
2023-12-02T14:41:35.698Z,14.15
2023-12-02T14:42:58.940Z,13.02
2023-12-02T14:45:03.405Z,9.57
2023-12-02T14:46:06.908Z,13.75
2023-12-02T14:47:12.661Z,11.60
2023-12-02T14:48:17.563Z,14.85
2023-12-02T14:49:20.840Z,14.02
2023-12-02T14:50:25.892Z,12.75
2023-12-02T14:51:35.600Z,12.65
2023-12-02T14:52:44.332Z,13.48
2023-12-02T14:53:46.650Z,15.15
2023-12-02T14:54:49.020Z,15.10
2023-12-02T14:55:51.117Z,17.95
2023-12-02T14:56:53.415Z,14.82
2023-12-02T14:58:22.141Z,17.15
2023-12-02T14:59:25.063Z,13.70
2023-12-02T15:00:27.770Z,12.73
2023-12-02T15:01:38.640Z,15.23
2023-12-02T15:02:51.749Z,15.20
2023-12-02T15:03:55.060Z,17.52
2023-12-02T15:04:57.482Z,12.00
2023-12-02T15:06:01.480Z,14.93
2023-12-02T15:07:05.257Z,12.88
2023-12-02T15:08:13.872Z,15.88
2023-12-02T15:09:28.575Z,15.88
2023-12-02T15:10:37.630Z,13.35
2023-12-02T15:11:44.408Z,15.52
2023-12-02T15:12:49.310Z,17.83
2023-12-02T15:13:52.435Z,15.63
2023-12-02T15:14:56.814Z,13.73
2023-12-02T15:15:59.783Z,11.18
2023-12-02T15:17:05.322Z,13.85
2023-12-02T15:18:09.640Z,13.52
2023-12-02T15:19:13.051Z,8.77
2023-12-02T15:20:16.397Z,13.45
2023-12-02T15:21:21.337Z,13.40
2023-12-02T15:22:23.455Z,15.15
2023-12-02T15:23:34.865Z,17.33
2023-12-02T15:24:37.647Z,11.65
2023-12-02T15:25:40.312Z,15.02
2023-12-02T15:26:43.266Z,14.63
2023-12-02T15:27:45.310Z,12.57
2023-12-02T15:28:51.604Z,9.80
2023-12-02T15:29:53.973Z,12.18
2023-12-02T15:30:58.767Z,11.93
2023-12-02T15:32:02.866Z,14.93
2023-12-02T15:33:04.889Z,10.85
2023-12-02T15:34:07.522Z,14.82
2023-12-02T15:35:11.631Z,10.85
2023-12-02T15:36:14.981Z,11.50
2023-12-02T15:37:17.738Z,12.60
2023-12-02T15:38:20.850Z,13.60
2023-12-02T15:39:23.787Z,9.15
2023-12-02T15:40:25.974Z,15.80
2023-12-02T15:41:28.406Z,9.95
2023-12-02T15:42:30.823Z,10.95
2023-12-02T15:43:33.173Z,13.82
2023-12-02T15:44:45.300Z,15.07
2023-12-02T15:45:47.457Z,10.70
2023-12-02T15:46:51.083Z,11.95
2023-12-02T15:47:53.366Z,12.90
2023-12-02T15:48:56.587Z,13.40
2023-12-02T15:49:59.074Z,13.20
2023-12-02T15:51:01.364Z,12.68
2023-12-02T15:52:06.396Z,19.95
2023-12-02T15:53:09.080Z,13.50
2023-12-02T15:54:16.579Z,9.68
2023-12-02T15:55:22.173Z,15.90
2023-12-02T15:56:25.859Z,10.23
2023-12-02T15:57:28.054Z,10.57
2023-12-02T15:58:32.418Z,10.20
2023-12-02T15:59:34.971Z,13.07
2023-12-02T16:00:38.319Z,11.95
2023-12-02T16:01:48.187Z,10.57
2023-12-02T16:02:50.324Z,12.70
2023-12-02T16:03:54.060Z,10.35
2023-12-02T16:04:56.137Z,11.32
2023-12-02T16:05:58.817Z,14.30
2023-12-02T16:07:01.413Z,13.02
2023-12-02T16:08:08.245Z,13.38
2023-12-02T16:09:10.443Z,11.07
2023-12-02T16:10:13.667Z,13.38
2023-12-02T16:11:16.249Z,15.20
2023-12-02T16:12:19.629Z,14.70
2023-12-02T16:13:23.276Z,13.85
2023-12-02T16:14:25.647Z,14.93
2023-12-02T16:15:32.026Z,13.00
2023-12-02T16:16:36.493Z,17.60
2023-12-02T16:17:39.734Z,8.05
2023-12-02T16:18:44.464Z,12.05
2023-12-02T16:19:48.848Z,14.38
2023-12-02T16:21:55.180Z,11.73
2023-12-02T16:22:58.326Z,12.85
2023-12-02T16:24:01.351Z,15.10
2023-12-02T16:25:05.139Z,12.88
2023-12-02T16:26:08.888Z,9.68
2023-12-02T16:27:11.084Z,10.48
2023-12-02T16:28:13.143Z,12.00
2023-12-02T16:29:16.421Z,12.68
2023-12-02T16:30:23.074Z,15.10
2023-12-02T16:31:28.962Z,12.50
2023-12-02T16:32:32.131Z,11.85
2023-12-02T16:33:36.839Z,17.13
2023-12-02T16:34:42.449Z,18.67
2023-12-02T16:35:44.671Z,12.10
2023-12-02T16:36:49.803Z,13.77
2023-12-02T16:37:53.375Z,20.33
2023-12-02T16:38:55.846Z,16.15
2023-12-02T16:39:58.767Z,14.20
2023-12-02T16:41:00.865Z,12.23
2023-12-02T16:42:03.062Z,11.75
2023-12-02T16:43:05.212Z,11.68
2023-12-02T16:44:08.656Z,14.02
2023-12-02T16:45:19.409Z,12.02
2023-12-02T16:46:22.369Z,11.00
2023-12-02T16:47:56.689Z,12.43
2023-12-02T16:48:58.885Z,14.05
2023-12-02T16:50:01.439Z,12.90
2023-12-02T16:51:07.632Z,13.95
2023-12-02T16:52:15.143Z,11.65
2023-12-02T16:53:24.766Z,10.82
2023-12-02T16:54:33.287Z,15.30
2023-12-02T16:55:36.970Z,13.93
2023-12-02T16:56:39.251Z,13.52
2023-12-02T16:57:51.108Z,12.30
2023-12-02T16:58:53.103Z,19.33
2023-12-02T16:59:58.749Z,13.95
2023-12-02T17:01:03.389Z,18.35
2023-12-02T17:02:05.573Z,19.00
2023-12-02T17:03:09.099Z,19.17
2023-12-02T17:04:11.546Z,22.35
2023-12-02T17:05:28.869Z,22.02
2023-12-02T17:06:32.131Z,16.58
2023-12-02T17:07:34.217Z,15.48
2023-12-02T17:08:42.591Z,10.35
2023-12-02T17:09:46.078Z,19.85
2023-12-02T17:10:59.772Z,20.27
2023-12-02T17:12:02.101Z,15.90
2023-12-02T17:13:04.321Z,13.52
2023-12-02T17:14:11.703Z,14.43
2023-12-02T17:15:27.934Z,15.30
2023-12-02T17:16:35.624Z,15.95
2023-12-02T17:17:38.134Z,15.85
2023-12-02T17:18:40.277Z,13.60
2023-12-02T17:19:43.739Z,13.18
2023-12-02T17:20:45.788Z,14.18
2023-12-02T17:21:56.212Z,11.27
2023-12-02T17:22:58.215Z,11.85
2023-12-02T17:24:01.908Z,11.27
2023-12-02T17:25:21.575Z,9.48
2023-12-02T17:26:29.442Z,9.77
2023-12-02T17:27:40.805Z,13.57
2023-12-02T17:28:43.397Z,13.27
2023-12-02T17:29:45.404Z,11.15
2023-12-02T17:30:47.457Z,12.77
2023-12-02T17:31:49.837Z,8.00
2023-12-02T17:32:52.097Z,9.90
2023-12-02T17:33:54.174Z,11.05
2023-12-02T17:34:58.959Z,10.82
2023-12-02T17:36:01.848Z,13.25
2023-12-02T17:37:04.361Z,9.05
2023-12-02T17:38:06.437Z,12.95
2023-12-02T17:39:08.692Z,10.15
2023-12-02T17:40:11.332Z,7.90
2023-12-02T17:41:13.604Z,9.18
2023-12-02T17:42:16.416Z,13.98
2023-12-02T17:43:18.698Z,10.05
2023-12-02T17:44:21.236Z,11.80
2023-12-02T17:45:23.446Z,9.90
2023-12-02T17:46:28.232Z,10.40
2023-12-02T17:47:30.560Z,11.68
2023-12-02T17:48:32.718Z,11.32
2023-12-02T17:49:34.980Z,12.15
2023-12-02T17:50:37.082Z,12.73
2023-12-02T17:51:43.097Z,6.70
2023-12-02T17:52:45.743Z,11.85
2023-12-02T17:53:48.126Z,7.25
2023-12-02T17:54:50.390Z,9.90
2023-12-02T17:55:52.471Z,10.43
2023-12-02T17:56:54.646Z,8.27
2023-12-02T17:57:56.773Z,8.45
2023-12-02T17:58:58.963Z,12.77
2023-12-02T18:00:01.316Z,7.55
2023-12-02T18:01:03.426Z,9.10
2023-12-02T18:02:06.195Z,11.45
2023-12-02T18:03:08.324Z,7.75
2023-12-02T18:04:10.494Z,11.90
2023-12-02T18:05:12.692Z,10.32
2023-12-02T18:06:14.811Z,9.95
2023-12-02T18:07:16.838Z,11.98
2023-12-02T18:08:19.024Z,10.55
2023-12-02T18:09:21.695Z,8.68
2023-12-02T18:10:23.810Z,10.15
2023-12-02T18:11:25.844Z,7.90
2023-12-02T18:12:30.740Z,8.25
2023-12-02T18:13:32.997Z,10.88
2023-12-02T18:14:35.712Z,13.98
2023-12-02T18:15:38.732Z,9.63
2023-12-02T18:16:41.174Z,11.70
2023-12-02T18:17:43.199Z,9.90
2023-12-02T18:18:45.504Z,11.45
2023-12-02T18:19:47.823Z,11.25
2023-12-02T18:20:50.895Z,9.13
2023-12-02T18:21:52.959Z,10.38
2023-12-02T18:22:55.294Z,8.60
2023-12-02T18:23:59.038Z,9.65
2023-12-02T18:25:01.307Z,10.77
2023-12-02T18:26:03.445Z,12.18
2023-12-02T18:27:05.767Z,10.90
2023-12-02T18:28:07.816Z,10.95
2023-12-02T18:29:09.988Z,10.52
2023-12-02T18:30:12.867Z,11.13
2023-12-02T18:31:14.998Z,11.50
2023-12-02T18:32:17.173Z,11.95
2023-12-02T18:33:19.451Z,11.25
2023-12-02T18:34:21.808Z,11.63
2023-12-02T18:35:24.120Z,9.10
2023-12-02T18:36:26.219Z,11.98
2023-12-02T18:37:28.350Z,10.80
2023-12-02T18:38:30.745Z,9.52
2023-12-02T18:39:33.071Z,9.48
2023-12-02T18:40:36.831Z,10.95
2023-12-02T18:41:38.903Z,8.23
2023-12-02T18:42:40.975Z,10.02
2023-12-02T18:43:43.303Z,10.50
2023-12-02T18:44:45.430Z,9.63
2023-12-02T18:45:47.685Z,7.40
2023-12-02T18:46:49.748Z,9.57
2023-12-02T18:47:52.999Z,11.20
2023-12-02T18:48:55.199Z,10.07
2023-12-02T18:49:57.541Z,8.55
2023-12-02T18:50:59.513Z,10.35
2023-12-02T18:52:01.724Z,11.32
2023-12-02T18:53:03.714Z,10.43
2023-12-02T18:54:06.228Z,9.70
2023-12-02T18:55:08.503Z,7.55
2023-12-02T18:56:12.504Z,9.75
2023-12-02T18:58:17.152Z,8.45
2023-12-02T18:59:19.256Z,9.77
2023-12-02T19:00:21.463Z,12.90
2023-12-02T19:01:23.902Z,7.45
2023-12-02T19:02:25.911Z,8.93
2023-12-02T19:03:28.152Z,11.13
2023-12-02T19:04:30.404Z,8.48
2023-12-02T19:05:32.599Z,11.07
2023-12-02T19:06:34.648Z,7.28
2023-12-02T19:07:37.114Z,6.43
2023-12-02T19:08:39.240Z,11.88
2023-12-02T19:09:41.484Z,10.45
2023-12-02T19:10:43.483Z,9.43
2023-12-02T19:11:45.582Z,8.35
2023-12-02T19:12:47.645Z,9.43
2023-12-02T19:13:49.711Z,7.93
2023-12-02T19:14:51.922Z,9.60
2023-12-02T19:15:54.180Z,6.32
2023-12-02T19:16:56.270Z,10.63
2023-12-02T19:17:58.427Z,9.88
2023-12-02T19:19:00.896Z,10.27
2023-12-02T19:20:04.443Z,9.43
2023-12-02T19:21:07.677Z,9.15
2023-12-02T19:22:10.236Z,10.05
2023-12-02T19:23:12.264Z,7.45
2023-12-02T19:24:15.490Z,8.20
2023-12-02T19:25:17.588Z,7.85
2023-12-02T19:26:19.876Z,8.20
2023-12-02T19:27:22.294Z,8.75
2023-12-02T19:28:24.718Z,9.48
2023-12-02T19:29:26.853Z,10.35
2023-12-02T19:30:29.090Z,8.20
2023-12-02T19:31:31.184Z,8.25
2023-12-02T19:32:34.104Z,6.70
2023-12-02T19:33:36.345Z,5.28
2023-12-02T19:34:38.720Z,9.77
2023-12-02T19:35:41.098Z,8.93
2023-12-02T19:36:43.242Z,8.73
2023-12-02T19:37:45.237Z,7.35
2023-12-02T19:38:47.408Z,7.32
2023-12-02T19:39:49.417Z,11.38
2023-12-02T19:40:51.561Z,10.20
2023-12-02T19:41:53.715Z,9.55
2023-12-02T19:42:56.109Z,11.25
2023-12-02T19:43:58.567Z,8.15
2023-12-02T19:45:00.767Z,9.88
2023-12-02T19:46:02.964Z,8.55
2023-12-02T19:47:06.206Z,10.50
2023-12-02T19:48:08.500Z,10.27
2023-12-02T19:49:11.736Z,10.23
2023-12-02T19:50:13.897Z,9.38
2023-12-02T19:51:16.431Z,10.45
2023-12-02T19:52:18.450Z,10.02
2023-12-02T19:53:21.553Z,12.00
2023-12-02T19:54:24.337Z,9.18
2023-12-02T19:55:26.441Z,10.73
2023-12-02T19:56:30.135Z,7.85
2023-12-02T19:57:32.465Z,9.93
2023-12-02T19:58:34.463Z,10.50
2023-12-02T19:59:36.513Z,13.68
2023-12-02T20:00:38.534Z,13.50
2023-12-02T20:01:40.778Z,11.52
2023-12-02T20:02:42.945Z,10.35
2023-12-02T20:03:45.416Z,11.98
2023-12-02T20:04:47.618Z,10.23
2023-12-02T20:05:49.908Z,10.73
2023-12-02T20:06:52.089Z,11.50
2023-12-02T20:07:55.016Z,12.70
2023-12-02T20:08:57.092Z,12.30
2023-12-02T20:09:59.357Z,11.80
2023-12-02T20:11:01.335Z,14.45
2023-12-02T20:12:05.043Z,16.30
2023-12-02T20:13:07.085Z,8.27
2023-12-02T20:14:09.488Z,14.02
2023-12-02T20:15:11.713Z,13.80
2023-12-02T20:16:14.030Z,14.55
2023-12-02T20:17:18.568Z,16.92
2023-12-02T20:18:20.831Z,10.65
2023-12-02T20:19:23.161Z,14.50
2023-12-02T20:20:25.258Z,13.52
2023-12-02T20:21:27.640Z,17.20
2023-12-02T20:22:29.830Z,14.80
2023-12-02T20:23:32.574Z,14.48
2023-12-02T20:24:35.137Z,12.90
2023-12-02T20:25:37.151Z,12.85
2023-12-02T20:26:39.713Z,11.95
2023-12-02T20:27:42.079Z,18.30
2023-12-02T20:28:44.309Z,12.43
2023-12-02T20:29:46.440Z,9.00
2023-12-02T20:30:48.743Z,15.20
2023-12-02T20:31:51.259Z,16.80
2023-12-02T20:32:53.381Z,19.25
2023-12-02T20:33:55.593Z,20.02
2023-12-02T20:34:57.927Z,17.25
2023-12-02T20:36:00.237Z,14.55
2023-12-02T20:37:02.432Z,11.68
2023-12-02T20:38:04.739Z,16.77
2023-12-02T20:39:09.758Z,14.50
2023-12-02T20:40:12.502Z,13.18
2023-12-02T20:41:15.019Z,18.15
2023-12-02T20:42:17.014Z,17.60
2023-12-02T20:43:21.429Z,16.75
2023-12-02T20:45:25.586Z,11.52
2023-12-02T20:46:27.923Z,15.02
2023-12-02T20:47:29.986Z,14.80
2023-12-02T20:48:32.671Z,21.17
2023-12-02T20:49:34.924Z,17.90
2023-12-02T20:50:37.094Z,19.48
2023-12-02T20:51:39.560Z,17.70
2023-12-02T20:52:41.638Z,9.63
2023-12-02T20:53:43.716Z,15.50
2023-12-02T20:54:45.818Z,20.83
2023-12-02T20:55:48.209Z,17.92
2023-12-02T20:56:50.337Z,19.45
2023-12-02T20:57:52.460Z,18.23
2023-12-02T20:58:54.617Z,20.83
2023-12-02T20:59:56.627Z,18.10
2023-12-02T21:00:58.913Z,17.55
2023-12-02T21:02:01.252Z,20.25
2023-12-02T21:03:03.501Z,16.42
2023-12-02T21:04:06.085Z,19.30
2023-12-02T21:05:09.384Z,16.42
2023-12-02T21:06:11.597Z,14.20
2023-12-02T21:07:13.794Z,19.20
2023-12-02T21:08:16.027Z,18.67
2023-12-02T21:09:18.258Z,18.25
2023-12-02T21:10:20.360Z,18.60
2023-12-02T21:11:22.777Z,17.50
2023-12-02T21:12:26.252Z,17.38
2023-12-02T21:13:29.584Z,13.98
2023-12-02T21:14:31.556Z,17.35
2023-12-02T21:15:42.696Z,15.57
2023-12-02T21:16:46.568Z,17.65
2023-12-02T21:17:49.080Z,14.93
2023-12-02T21:18:51.897Z,15.30
2023-12-02T21:19:54.221Z,15.13
2023-12-02T21:20:56.363Z,14.60
2023-12-02T21:21:58.650Z,20.75
2023-12-02T21:23:01.386Z,17.30
2023-12-02T21:24:03.561Z,20.00
2023-12-02T21:25:06.088Z,17.58
2023-12-02T21:26:08.485Z,13.13
2023-12-02T21:27:12.083Z,13.73
2023-12-02T21:28:14.173Z,13.88
2023-12-02T21:29:16.193Z,18.92
2023-12-02T21:30:29.222Z,16.33
2023-12-02T21:31:35.018Z,15.07
2023-12-02T21:32:37.531Z,11.77
2023-12-02T21:33:39.780Z,19.27
2023-12-02T21:34:42.021Z,14.30
2023-12-02T21:35:55.515Z,17.02
2023-12-02T21:37:01.071Z,12.45
2023-12-02T21:38:18.139Z,13.55
2023-12-02T21:39:22.897Z,8.20
2023-12-02T21:40:30.993Z,18.08
2023-12-02T21:41:33.451Z,13.13
2023-12-02T21:42:36.031Z,17.75
2023-12-02T21:43:39.147Z,12.02
2023-12-02T21:44:41.146Z,15.23
2023-12-02T21:45:46.171Z,15.25
2023-12-02T21:46:50.044Z,17.05
2023-12-02T21:47:52.445Z,18.80
2023-12-02T21:48:59.415Z,11.30
2023-12-02T21:50:07.479Z,13.35
2023-12-02T21:51:23.021Z,12.02
2023-12-02T21:52:25.089Z,13.40